sensor_id;sensor_type;location;lat;lon;timestamp;P1;durP1;ratioP1;P2;durP2;ratioP2
75922;SDS011;64602;47.542;19.090;2023-04-03T05:22:32;8.05;;;3.33;;
75922;SDS011;64602;47.542;19.090;2023-04-03T05:27:34;5.47;;;3.10;;
75922;SDS011;64602;47.542;19.090;2023-04-03T05:32:36;5.83;;;2.87;;
75922;SDS011;64602;47.542;19.090;2023-04-03T05:37:38;8.82;;;3.85;;
75922;SDS011;64602;47.542;19.090;2023-04-03T05:42:41;5.53;;;3.00;;
75922;SDS011;64602;47.542;19.090;2023-04-03T05:47:43;5.83;;;2.93;;
75922;SDS011;64602;47.542;19.090;2023-04-03T05:52:45;6.25;;;3.37;;
75922;SDS011;64602;47.542;19.090;2023-04-03T05:57:50;6.85;;;3.92;;
75922;SDS011;64602;47.542;19.090;2023-04-03T06:02:52;7.40;;;3.33;;
75922;SDS011;64602;47.542;19.090;2023-04-03T06:07:55;5.40;;;3.07;;
75922;SDS011;64602;47.542;19.090;2023-04-03T06:12:58;6.07;;;3.10;;
75922;SDS011;64602;47.542;19.090;2023-04-03T06:18:00;5.65;;;3.00;;
75922;SDS011;64602;47.542;19.090;2023-04-03T06:23:03;5.47;;;2.87;;
75922;SDS011;64602;47.542;19.090;2023-04-03T06:28:07;5.90;;;3.00;;
75922;SDS011;64602;47.542;19.090;2023-04-03T06:33:11;5.78;;;3.10;;
75922;SDS011;64602;47.542;19.090;2023-04-03T06:38:13;6.20;;;2.90;;
75922;SDS011;64602;47.542;19.090;2023-04-03T06:43:15;4.55;;;2.20;;
75922;SDS011;64602;47.542;19.090;2023-04-03T06:48:18;6.53;;;2.97;;
75922;SDS011;64602;47.542;19.090;2023-04-03T06:53:20;4.60;;;1.93;;
75922;SDS011;64602;47.542;19.090;2023-04-03T06:58:22;4.53;;;1.80;;
75922;SDS011;64602;47.542;19.090;2023-04-03T07:03:24;3.25;;;1.70;;
75922;SDS011;64602;47.542;19.090;2023-04-03T07:08:26;3.22;;;1.60;;
75922;SDS011;64602;47.542;19.090;2023-04-03T07:13:28;3.93;;;2.40;;
75922;SDS011;64602;47.542;19.090;2023-04-03T07:18:31;6.37;;;1.95;;
75922;SDS011;64602;47.542;19.090;2023-04-03T07:23:33;3.70;;;1.55;;
75922;SDS011;64602;47.542;19.090;2023-04-03T07:28:35;3.77;;;1.67;;
75922;SDS011;64602;47.542;19.090;2023-04-03T07:33:39;2.53;;;1.37;;
75922;SDS011;64602;47.542;19.090;2023-04-03T07:38:42;3.12;;;1.30;;
75922;SDS011;64602;47.542;19.090;2023-04-03T07:43:44;3.43;;;1.30;;
75922;SDS011;64602;47.542;19.090;2023-04-03T07:48:46;5.43;;;2.30;;
75922;SDS011;64602;47.542;19.090;2023-04-03T07:53:49;2.28;;;1.10;;
75922;SDS011;64602;47.542;19.090;2023-04-03T07:58:51;3.22;;;1.23;;
75922;SDS011;64602;47.542;19.090;2023-04-03T08:03:53;3.57;;;1.20;;
75922;SDS011;64602;47.542;19.090;2023-04-03T08:08:55;3.25;;;1.70;;
75922;SDS011;64602;47.542;19.090;2023-04-03T08:13:57;2.72;;;1.40;;
75922;SDS011;64602;47.542;19.090;2023-04-03T08:19:00;3.23;;;1.87;;
75922;SDS011;64602;47.542;19.090;2023-04-03T08:24:03;2.10;;;1.25;;
75922;SDS011;64602;47.542;19.090;2023-04-03T08:29:05;2.35;;;1.17;;
75922;SDS011;64602;47.542;19.090;2023-04-03T08:34:07;2.60;;;1.20;;
75922;SDS011;64602;47.542;19.090;2023-04-03T08:39:10;2.90;;;1.33;;
75922;SDS011;64602;47.542;19.090;2023-04-03T08:44:25;2.83;;;1.00;;
75922;SDS011;64602;47.542;19.090;2023-04-03T08:49:52;2.50;;;1.10;;
75922;SDS011;64602;47.542;19.090;2023-04-03T08:54:58;2.00;;;1.00;;
75922;SDS011;64602;47.542;19.090;2023-04-03T09:00:05;2.35;;;1.42;;
75922;SDS011;64602;47.542;19.090;2023-04-03T09:05:27;2.87;;;1.23;;
75922;SDS011;64602;47.542;19.090;2023-04-03T09:10:39;2.47;;;1.10;;
75922;SDS011;64602;47.542;19.090;2023-04-03T09:15:43;1.90;;;0.90;;
75922;SDS011;64602;47.542;19.090;2023-04-03T09:20:54;2.03;;;0.98;;
75922;SDS011;64602;47.542;19.090;2023-04-03T09:26:06;2.60;;;0.97;;
75922;SDS011;64602;47.542;19.090;2023-04-03T09:31:16;2.97;;;1.03;;
75922;SDS011;64602;47.542;19.090;2023-04-03T09:42:03;2.65;;;1.17;;
75922;SDS011;64602;47.542;19.090;2023-04-03T09:47:17;1.80;;;0.80;;
75922;SDS011;64602;47.542;19.090;2023-04-03T09:52:25;2.28;;;1.12;;
75922;SDS011;64602;47.542;19.090;2023-04-03T09:57:30;2.53;;;1.23;;
75922;SDS011;64602;47.542;19.090;2023-04-03T10:02:38;3.00;;;1.20;;
75922;SDS011;64602;47.542;19.090;2023-04-03T10:07:41;2.53;;;1.15;;
75922;SDS011;64602;47.542;19.090;2023-04-03T10:13:15;2.58;;;1.00;;
75922;SDS011;64602;47.542;19.090;2023-04-03T10:23:44;1.87;;;0.80;;
75922;SDS011;64602;47.542;19.090;2023-04-03T10:28:56;1.83;;;0.90;;
75922;SDS011;64602;47.542;19.090;2023-04-03T10:34:05;2.67;;;1.10;;
75922;SDS011;64602;47.542;19.090;2023-04-03T10:50:00;2.35;;;0.95;;
75922;SDS011;64602;47.542;19.090;2023-04-03T11:00:18;1.55;;;0.90;;
75922;SDS011;64602;47.542;19.090;2023-04-03T11:05:39;2.08;;;0.85;;
75922;SDS011;64602;47.542;19.090;2023-04-03T11:10:46;1.87;;;0.80;;
75922;SDS011;64602;47.542;19.090;2023-04-03T11:15:52;3.87;;;0.80;;
75922;SDS011;64602;47.542;19.090;2023-04-03T11:26:27;2.30;;;0.90;;
75922;SDS011;64602;47.542;19.090;2023-04-03T11:48:05;1.67;;;0.83;;
75922;SDS011;64602;47.542;19.090;2023-04-03T11:53:26;1.67;;;0.70;;
75922;SDS011;64602;47.542;19.090;2023-04-03T11:58:33;2.85;;;0.80;;
75922;SDS011;64602;47.542;19.090;2023-04-03T12:23:58;2.30;;;1.40;;
75922;SDS011;64602;47.542;19.090;2023-04-03T12:29:10;1.73;;;0.90;;
75922;SDS011;64602;47.542;19.090;2023-04-03T12:40:15;2.23;;;1.37;;
75922;SDS011;64602;47.542;19.090;2023-04-03T12:45:21;3.15;;;0.77;;
75922;SDS011;64602;47.542;19.090;2023-04-03T12:50:32;2.03;;;0.75;;
75922;SDS011;64602;47.542;19.090;2023-04-03T12:55:35;3.70;;;1.20;;
75922;SDS011;64602;47.542;19.090;2023-04-03T13:00:38;4.13;;;0.80;;
75922;SDS011;64602;47.542;19.090;2023-04-03T13:05:43;1.85;;;1.10;;
75922;SDS011;64602;47.542;19.090;2023-04-03T13:10:51;2.85;;;0.68;;
75922;SDS011;64602;47.542;19.090;2023-04-03T13:15:57;2.90;;;1.00;;
75922;SDS011;64602;47.542;19.090;2023-04-03T13:21:04;2.60;;;0.65;;
75922;SDS011;64602;47.542;19.090;2023-04-03T13:26:19;1.65;;;0.70;;
75922;SDS011;64602;47.542;19.090;2023-04-03T13:31:25;4.60;;;1.30;;
75922;SDS011;64602;47.542;19.090;2023-04-03T13:36:34;1.67;;;0.70;;
75922;SDS011;64602;47.542;19.090;2023-04-03T13:41:48;2.15;;;0.60;;
75922;SDS011;64602;47.542;19.090;2023-04-03T13:46:59;1.87;;;0.80;;
75922;SDS011;64602;47.542;19.090;2023-04-03T13:52:33;2.07;;;0.70;;
75922;SDS011;64602;47.542;19.090;2023-04-03T13:57:59;2.33;;;0.70;;
75922;SDS011;64602;47.542;19.090;2023-04-03T14:08:45;2.20;;;1.00;;
75922;SDS011;64602;47.542;19.090;2023-04-03T14:13:48;4.05;;;0.70;;
75922;SDS011;64602;47.542;19.090;2023-04-03T14:18:52;3.08;;;0.90;;
75922;SDS011;64602;47.542;19.090;2023-04-03T14:23:54;5.27;;;0.80;;
75922;SDS011;64602;47.542;19.090;2023-04-03T14:28:56;2.45;;;0.90;;
75922;SDS011;64602;47.542;19.090;2023-04-03T14:33:58;2.20;;;0.80;;
75922;SDS011;64602;47.542;19.090;2023-04-03T14:39:01;2.67;;;0.80;;
75922;SDS011;64602;47.542;19.090;2023-04-03T14:44:13;1.50;;;0.77;;
75922;SDS011;64602;47.542;19.090;2023-04-03T14:49:15;2.10;;;1.12;;
75922;SDS011;64602;47.542;19.090;2023-04-03T14:54:22;2.00;;;0.60;;
75922;SDS011;64602;47.542;19.090;2023-04-03T14:59:30;1.90;;;0.70;;
75922;SDS011;64602;47.542;19.090;2023-04-03T15:04:33;2.30;;;0.80;;
75922;SDS011;64602;47.542;19.090;2023-04-03T15:09:35;8.40;;;6.10;;
75922;SDS011;64602;47.542;19.090;2023-04-03T15:14:38;6.20;;;5.10;;
75922;SDS011;64602;47.542;19.090;2023-04-03T15:19:43;2.65;;;1.55;;
75922;SDS011;64602;47.542;19.090;2023-04-03T15:24:46;3.00;;;1.30;;
75922;SDS011;64602;47.542;19.090;2023-04-03T15:29:48;2.57;;;1.20;;
75922;SDS011;64602;47.542;19.090;2023-04-03T15:34:50;2.77;;;1.33;;
75922;SDS011;64602;47.542;19.090;2023-04-03T15:39:57;2.60;;;1.50;;
75922;SDS011;64602;47.542;19.090;2023-04-03T15:45:00;4.20;;;1.33;;
75922;SDS011;64602;47.542;19.090;2023-04-03T15:50:03;4.80;;;1.70;;
75922;SDS011;64602;47.542;19.090;2023-04-03T15:55:08;3.10;;;1.40;;
75922;SDS011;64602;47.542;19.090;2023-04-03T16:00:11;6.28;;;1.55;;
75922;SDS011;64602;47.542;19.090;2023-04-03T16:05:14;3.27;;;1.80;;
75922;SDS011;64602;47.542;19.090;2023-04-03T16:10:19;2.78;;;1.00;;
75922;SDS011;64602;47.542;19.090;2023-04-03T16:15:21;3.03;;;1.20;;
75922;SDS011;64602;47.542;19.090;2023-04-03T16:20:24;2.47;;;1.37;;
75922;SDS011;64602;47.542;19.090;2023-04-03T16:25:27;2.90;;;1.13;;
75922;SDS011;64602;47.542;19.090;2023-04-03T16:30:29;4.25;;;1.50;;
75922;SDS011;64602;47.542;19.090;2023-04-03T16:35:32;2.55;;;1.35;;
75922;SDS011;64602;47.542;19.090;2023-04-03T16:40:34;3.37;;;1.10;;
75922;SDS011;64602;47.542;19.090;2023-04-03T16:45:36;4.10;;;1.60;;
75922;SDS011;64602;47.542;19.090;2023-04-03T16:50:39;2.83;;;1.30;;
75922;SDS011;64602;47.542;19.090;2023-04-03T16:55:41;3.53;;;1.40;;
75922;SDS011;64602;47.542;19.090;2023-04-03T17:00:43;3.67;;;1.65;;
75922;SDS011;64602;47.542;19.090;2023-04-03T17:05:48;7.47;;;1.40;;
75922;SDS011;64602;47.542;19.090;2023-04-03T17:10:51;2.37;;;1.20;;
75922;SDS011;64602;47.542;19.090;2023-04-03T17:15:55;5.37;;;1.50;;
75922;SDS011;64602;47.542;19.090;2023-04-03T17:20:57;2.83;;;1.30;;
75922;SDS011;64602;47.542;19.090;2023-04-03T17:26:00;3.00;;;1.77;;
75922;SDS011;64602;47.542;19.090;2023-04-03T17:31:03;4.70;;;1.50;;
75922;SDS011;64602;47.542;19.090;2023-04-03T17:36:06;2.60;;;1.37;;
75922;SDS011;64602;47.542;19.090;2023-04-03T17:41:08;4.53;;;1.37;;
75922;SDS011;64602;47.542;19.090;2023-04-03T17:46:11;3.60;;;1.43;;
75922;SDS011;64602;47.542;19.090;2023-04-03T17:51:14;3.03;;;1.00;;
75922;SDS011;64602;47.542;19.090;2023-04-03T17:56:19;2.75;;;1.30;;
75922;SDS011;64602;47.542;19.090;2023-04-03T18:01:28;3.57;;;1.30;;
75922;SDS011;64602;47.542;19.090;2023-04-03T18:06:33;3.23;;;1.40;;
75922;SDS011;64602;47.542;19.090;2023-04-03T18:11:40;1.98;;;1.23;;
75922;SDS011;64602;47.542;19.090;2023-04-03T18:16:44;3.10;;;1.27;;
75922;SDS011;64602;47.542;19.090;2023-04-03T18:21:46;2.93;;;1.47;;
75922;SDS011;64602;47.542;19.090;2023-04-03T18:26:50;2.95;;;1.48;;
75922;SDS011;64602;47.542;19.090;2023-04-03T18:31:57;3.20;;;1.48;;
75922;SDS011;64602;47.542;19.090;2023-04-03T18:37:02;2.50;;;1.40;;
75922;SDS011;64602;47.542;19.090;2023-04-03T18:42:10;2.50;;;1.23;;
75922;SDS011;64602;47.542;19.090;2023-04-03T18:47:17;3.95;;;1.73;;
75922;SDS011;64602;47.542;19.090;2023-04-03T18:52:20;6.37;;;1.80;;
75922;SDS011;64602;47.542;19.090;2023-04-03T18:57:22;2.77;;;1.40;;
75922;SDS011;64602;47.542;19.090;2023-04-03T19:02:27;2.65;;;1.62;;
75922;SDS011;64602;47.542;19.090;2023-04-03T19:07:30;3.78;;;1.67;;
75922;SDS011;64602;47.542;19.090;2023-04-03T19:12:32;4.60;;;1.83;;
75922;SDS011;64602;47.542;19.090;2023-04-03T19:17:36;3.58;;;1.67;;
75922;SDS011;64602;47.542;19.090;2023-04-03T19:22:38;3.42;;;1.45;;
75922;SDS011;64602;47.542;19.090;2023-04-03T19:27:40;2.60;;;1.50;;
75922;SDS011;64602;47.542;19.090;2023-04-03T19:32:42;2.87;;;1.67;;
75922;SDS011;64602;47.542;19.090;2023-04-03T19:37:45;3.22;;;1.50;;
75922;SDS011;64602;47.542;19.090;2023-04-03T19:42:51;3.30;;;1.60;;
75922;SDS011;64602;47.542;19.090;2023-04-03T19:47:53;4.83;;;1.80;;
75922;SDS011;64602;47.542;19.090;2023-04-03T19:52:55;3.75;;;2.00;;
75922;SDS011;64602;47.542;19.090;2023-04-03T19:57:58;2.85;;;1.65;;
75922;SDS011;64602;47.542;19.090;2023-04-03T20:03:01;3.67;;;1.73;;
75922;SDS011;64602;47.542;19.090;2023-04-03T20:08:03;4.03;;;1.60;;
75922;SDS011;64602;47.542;19.090;2023-04-03T20:13:06;3.35;;;1.58;;
75922;SDS011;64602;47.542;19.090;2023-04-03T20:18:13;3.93;;;1.87;;
75922;SDS011;64602;47.542;19.090;2023-04-03T20:23:20;4.25;;;1.75;;
75922;SDS011;64602;47.542;19.090;2023-04-03T20:28:22;2.90;;;1.55;;
75922;SDS011;64602;47.542;19.090;2023-04-03T20:33:25;4.83;;;1.67;;
75922;SDS011;64602;47.542;19.090;2023-04-03T20:38:27;4.63;;;2.10;;
75922;SDS011;64602;47.542;19.090;2023-04-03T20:43:29;5.07;;;1.80;;
75922;SDS011;64602;47.542;19.090;2023-04-03T20:48:32;3.05;;;1.60;;
75922;SDS011;64602;47.542;19.090;2023-04-03T20:53:34;3.27;;;1.63;;
75922;SDS011;64602;47.542;19.090;2023-04-03T20:58:37;4.15;;;1.48;;
75922;SDS011;64602;47.542;19.090;2023-04-03T21:03:44;4.50;;;1.50;;
75922;SDS011;64602;47.542;19.090;2023-04-03T21:20:07;4.72;;;2.20;;
75922;SDS011;64602;47.542;19.090;2023-04-03T21:25:10;3.43;;;1.77;;
75922;SDS011;64602;47.542;19.090;2023-04-03T21:30:12;3.40;;;1.57;;
75922;SDS011;64602;47.542;19.090;2023-04-03T21:35:16;5.28;;;2.30;;
75922;SDS011;64602;47.542;19.090;2023-04-03T21:40:18;3.58;;;1.90;;
75922;SDS011;64602;47.542;19.090;2023-04-03T21:45:20;4.10;;;1.90;;
75922;SDS011;64602;47.542;19.090;2023-04-03T21:50:23;4.00;;;1.70;;
75922;SDS011;64602;47.542;19.090;2023-04-03T21:55:25;3.92;;;1.50;;
75922;SDS011;64602;47.542;19.090;2023-04-03T22:00:27;4.20;;;1.77;;
75922;SDS011;64602;47.542;19.090;2023-04-03T22:05:30;3.28;;;1.60;;
75922;SDS011;64602;47.542;19.090;2023-04-03T22:10:32;4.05;;;1.55;;
75922;SDS011;64602;47.542;19.090;2023-04-03T22:15:35;3.97;;;1.70;;
75922;SDS011;64602;47.542;19.090;2023-04-03T22:20:43;2.87;;;1.53;;
75922;SDS011;64602;47.542;19.090;2023-04-03T22:26:02;3.70;;;1.67;;
75922;SDS011;64602;47.542;19.090;2023-04-03T22:31:06;3.58;;;1.50;;
75922;SDS011;64602;47.542;19.090;2023-04-03T22:36:10;3.23;;;1.73;;
75922;SDS011;64602;47.542;19.090;2023-04-03T22:41:14;3.25;;;1.70;;
75922;SDS011;64602;47.542;19.090;2023-04-03T22:46:16;3.87;;;1.65;;
75922;SDS011;64602;47.542;19.090;2023-04-03T22:51:18;5.00;;;1.70;;
75922;SDS011;64602;47.542;19.090;2023-04-03T22:56:20;4.82;;;1.73;;
75922;SDS011;64602;47.542;19.090;2023-04-03T23:01:26;3.17;;;1.60;;
75922;SDS011;64602;47.542;19.090;2023-04-03T23:06:30;3.33;;;1.47;;
75922;SDS011;64602;47.542;19.090;2023-04-03T23:11:32;4.43;;;1.50;;
75922;SDS011;64602;47.542;19.090;2023-04-03T23:16:34;3.55;;;1.73;;
75922;SDS011;64602;47.542;19.090;2023-04-03T23:21:36;3.35;;;1.50;;
75922;SDS011;64602;47.542;19.090;2023-04-03T23:26:38;4.07;;;1.27;;
75922;SDS011;64602;47.542;19.090;2023-04-03T23:31:40;3.53;;;1.50;;
75922;SDS011;64602;47.542;19.090;2023-04-03T23:36:43;3.37;;;1.42;;
75922;SDS011;64602;47.542;19.090;2023-04-03T23:41:45;3.43;;;1.50;;
75922;SDS011;64602;47.542;19.090;2023-04-03T23:46:49;3.85;;;1.40;;
75922;SDS011;64602;47.542;19.090;2023-04-03T23:51:51;3.60;;;1.40;;
75922;SDS011;64602;47.542;19.090;2023-04-03T23:56:54;3.83;;;1.80;;
